Time;durP1;ratioP1;P1;durP2;ratioP2;P2;SDS_P1;SDS_P2;PMS_P1;PMS_P2;Temp;Humidity;BMP_temperature;BMP_pressure;BME280_temperature;BME280_humidity;BME280_pressure;Samples;Min_cycle;Max_cycle;Signal;HPM_P1;HPM_P2
2020/12/06 00:01:05;;;;;;;22.73;12.10;;;;;;;6.24;100.00;96360.50;5106271;28;20260;-78
2020/12/06 00:03:32;;;;;;;23.50;10.97;;;;;;;6.45;100.00;96368.09;5102789;28;20217;-78
2020/12/06 00:06:00;;;;;;;21.33;10.93;;;;;;;6.26;100.00;96358.47;5100569;22;20280;-76
2020/12/06 00:08:27;;;;;;;20.37;10.97;;;;;;;6.21;100.00;96353.00;5071301;28;20203;-76
2020/12/06 00:10:53;;;;;;;25.37;12.03;;;;;;;6.25;100.00;96358.69;5070923;28;20206;-76
2020/12/06 00:13:20;;;;;;;20.00;11.30;;;;;;;6.24;100.00;96359.72;5080890;28;20213;-76
2020/12/06 00:15:47;;;;;;;24.47;11.03;;;;;;;6.37;100.00;96344.53;5068146;28;20231;-76
2020/12/06 00:18:14;;;;;;;20.43;11.47;;;;;;;6.32;100.00;96339.06;5072776;28;20227;-75
2020/12/06 00:20:40;;;;;;;19.80;11.00;;;;;;;6.30;100.00;96341.09;5083720;28;20564;-76
2020/12/06 00:23:08;;;;;;;20.77;11.80;;;;;;;6.35;100.00;96343.13;5079281;28;20221;-75
2020/12/06 00:25:35;;;;;;;20.40;11.10;;;;;;;6.31;100.00;96348.03;5067704;28;20231;-76
2020/12/06 00:28:02;;;;;;;19.60;10.97;;;;;;;6.39;100.00;96354.91;5082568;28;20204;-76
2020/12/06 00:30:28;;;;;;;22.50;11.13;;;;;;;6.34;100.00;96360.06;5084219;28;20202;-76
2020/12/06 00:32:55;;;;;;;21.93;12.03;;;;;;;6.24;100.00;96349.91;5080005;28;20204;-76
2020/12/06 00:35:22;;;;;;;21.43;11.30;;;;;;;6.32;100.00;96344.38;5087565;28;20222;-76
2020/12/06 00:37:49;;;;;;;23.33;11.33;;;;;;;6.26;100.00;96336.47;5072155;28;20209;-75
2020/12/06 00:40:16;;;;;;;22.57;11.77;;;;;;;5.95;100.00;96328.53;5070661;28;20227;-74
2020/12/06 00:42:43;;;;;;;22.13;11.77;;;;;;;5.75;100.00;96317.19;5077471;28;20229;-74
2020/12/06 00:45:10;;;;;;;24.37;11.37;;;;;;;6.04;100.00;96308.72;5081219;28;20219;-74
2020/12/06 00:47:37;;;;;;;21.63;11.27;;;;;;;6.04;100.00;96306.06;5090844;28;20202;-76
2020/12/06 00:50:05;;;;;;;21.67;11.80;;;;;;;6.20;100.00;96287.78;5077210;28;20207;-75
2020/12/06 00:52:32;;;;;;;21.20;11.63;;;;;;;6.26;100.00;96281.66;5077269;28;20210;-76
2020/12/06 00:54:59;;;;;;;25.73;11.87;;;;;;;5.93;100.00;96280.25;5074137;28;20245;-76
2020/12/06 00:57:26;;;;;;;21.30;11.53;;;;;;;5.91;100.00;96269.91;5085682;28;20201;-75
2020/12/06 00:59:53;;;;;;;20.20;10.70;;;;;;;5.84;100.00;96260.38;5077953;28;20242;-76
2020/12/06 01:02:20;;;;;;;19.10;10.77;;;;;;;5.79;100.00;96260.97;5078963;28;20201;-74
2020/12/06 01:04:47;;;;;;;22.50;10.73;;;;;;;6.14;100.00;96272.78;5082071;28;20234;-75
2020/12/06 01:07:13;;;;;;;19.10;10.67;;;;;;;6.04;100.00;96284.88;5066197;28;20210;-75
2020/12/06 01:09:40;;;;;;;21.30;11.13;;;;;;;6.24;100.00;96277.59;5077560;28;20207;-75
2020/12/06 01:12:07;;;;;;;21.13;11.07;;;;;;;5.86;100.00;96266.25;5086549;28;20210;-75
2020/12/06 01:14:35;;;;;;;18.80;11.47;;;;;;;5.94;100.00;96258.09;5083332;28;20217;-75
2020/12/06 01:17:01;;;;;;;25.33;12.43;;;;;;;5.56;100.00;96254.63;5093082;28;20205;-75
2020/12/06 01:19:28;;;;;;;27.70;12.13;;;;;;;5.98;100.00;96269.84;5083639;28;20226;-75
2020/12/06 01:21:55;;;;;;;21.70;11.33;;;;;;;6.13;100.00;96268.50;5073123;28;20207;-75
2020/12/06 01:24:22;;;;;;;20.90;10.70;;;;;;;6.18;100.00;96279.28;5085282;28;20201;-75
2020/12/06 01:26:49;;;;;;;21.93;11.20;;;;;;;6.07;100.00;96295.84;5086288;28;20208;-75
2020/12/06 01:29:17;;;;;;;23.67;10.90;;;;;;;6.18;100.00;96310.22;5081356;28;20562;-75
2020/12/06 01:31:45;;;;;;;24.13;10.73;;;;;;;6.25;100.00;96305.72;5080857;28;20207;-75
2020/12/06 01:34:12;;;;;;;22.03;10.57;;;;;;;6.14;100.00;96303.75;5070715;28;20659;-75
2020/12/06 01:36:39;;;;;;;23.33;11.47;;;;;;;5.99;100.00;96303.25;5077049;28;20540;-75
2020/12/06 01:39:06;;;;;;;24.10;11.63;;;;;;;6.12;100.00;96306.63;5085433;28;20217;-75
2020/12/06 01:41:33;;;;;;;21.47;11.37;;;;;;;6.00;100.00;96297.72;5086428;28;20198;-74
2020/12/06 01:44:00;;;;;;;24.07;12.00;;;;;;;5.99;100.00;96305.91;5080540;28;20198;-76
2020/12/06 01:46:27;;;;;;;22.40;11.43;;;;;;;6.00;100.00;96312.81;5085343;28;20766;-75
2020/12/06 01:48:55;;;;;;;21.93;11.20;;;;;;;6.12;100.00;96329.63;5078725;28;20195;-75
2020/12/06 01:51:23;;;;;;;23.47;11.53;;;;;;;6.03;100.00;96328.25;5075349;28;20204;-75
2020/12/06 01:53:51;;;;;;;24.70;12.13;;;;;;;6.10;100.00;96313.16;5079486;28;20672;-74
2020/12/06 01:56:18;;;;;;;23.67;10.97;;;;;;;6.25;100.00;96311.81;5080682;28;20231;-75
2020/12/06 01:58:45;;;;;;;22.03;10.77;;;;;;;5.91;100.00;96319.38;5081191;28;20227;-74
2020/12/06 02:01:13;;;;;;;21.23;10.87;;;;;;;5.71;100.00;96326.59;5075801;28;20207;-74
2020/12/06 02:03:40;;;;;;;21.77;11.50;;;;;;;5.96;100.00;96315.06;5072402;28;20562;-75
2020/12/06 02:06:08;;;;;;;24.67;11.33;;;;;;;6.22;100.00;96311.41;5075237;28;20239;-75
2020/12/06 02:08:35;;;;;;;23.90;11.17;;;;;;;5.76;100.00;96298.47;5087515;28;20205;-74
2020/12/06 02:11:02;;;;;;;22.93;12.47;;;;;;;5.70;100.00;96296.69;5078348;28;20214;-75
2020/12/06 02:13:29;;;;;;;21.70;10.77;;;;;;;6.03;100.00;96297.31;5088367;28;20203;-74
2020/12/06 02:15:55;;;;;;;24.17;11.70;;;;;;;5.98;100.00;96283.91;5074245;28;20235;-75
2020/12/06 02:18:22;;;;;;;26.77;12.10;;;;;;;5.88;100.00;96280.91;5075077;28;20698;-74
2020/12/06 02:20:50;;;;;;;25.37;11.57;;;;;;;5.89;100.00;96271.94;5076732;28;20711;-74
2020/12/06 02:23:17;;;;;;;23.97;11.53;;;;;;;5.85;100.00;96269.94;5086095;28;20210;-74
2020/12/06 02:25:44;;;;;;;27.30;12.10;;;;;;;5.78;100.00;96285.81;5079419;28;20693;-76
2020/12/06 02:28:11;;;;;;;23.80;11.40;;;;;;;5.82;100.00;96302.13;5084546;28;20726;-74
2020/12/06 02:30:38;;;;;;;24.70;11.80;;;;;;;5.78;100.00;96309.66;5070211;28;20210;-74
2020/12/06 02:33:05;;;;;;;24.23;12.13;;;;;;;5.42;100.00;96296.19;5070219;28;20220;-74
2020/12/06 02:35:32;;;;;;;25.40;11.40;;;;;;;5.52;100.00;96282.50;5086801;28;20221;-74
2020/12/06 02:38:00;;;;;;;30.07;13.33;;;;;;;5.31;100.00;96272.22;5079736;28;20220;-74
2020/12/06 02:40:27;;;;;;;28.30;14.43;;;;;;;5.46;100.00;96270.13;5083596;28;20836;-74
2020/12/06 02:42:53;;;;;;;29.23;12.70;;;;;;;5.62;100.00;96264.34;5076759;28;20202;-73
2020/12/06 02:45:20;;;;;;;24.30;12.83;;;;;;;5.52;100.00;96254.22;5080086;28;20297;-76
2020/12/06 02:47:47;;;;;;;26.93;13.17;;;;;;;5.34;100.00;96246.19;5077591;28;20214;-74
2020/12/06 02:50:14;;;;;;;27.67;12.47;;;;;;;5.37;100.00;96248.41;5082250;28;20202;-73
2020/12/06 02:52:41;;;;;;;30.60;14.10;;;;;;;5.51;100.00;96242.03;5074902;28;20285;-76
2020/12/06 02:55:08;;;;;;;32.43;13.13;;;;;;;5.43;100.00;96246.75;5082314;28;20227;-74
2020/12/06 02:57:35;;;;;;;29.70;14.87;;;;;;;5.22;100.00;96255.81;5075706;28;20215;-75
2020/12/06 03:00:02;;;;;;;30.23;13.63;;;;;;;5.33;100.00;96249.84;5075776;28;20230;-74
2020/12/06 03:02:29;;;;;;;32.20;14.33;;;;;;;5.53;100.00;96253.19;5080413;28;20213;-75
2020/12/06 03:04:55;;;;;;;29.30;13.33;;;;;;;5.49;100.00;96251.22;5079695;28;20223;-75
2020/12/06 03:07:22;;;;;;;30.97;14.13;;;;;;;5.62;100.00;96251.94;5083743;28;20197;-74
2020/12/06 03:09:49;;;;;;;31.40;14.20;;;;;;;5.51;100.00;96251.78;5080531;28;20195;-74
2020/12/06 03:12:17;;;;;;;26.73;12.83;;;;;;;5.73;100.00;96253.09;5077600;28;20781;-74
2020/12/06 03:14:43;;;;;;;30.83;14.13;;;;;;;5.56;100.00;96259.91;5071206;28;20227;-74
2020/12/06 03:17:10;;;;;;;30.13;14.57;;;;;;;5.42;100.00;96274.22;5081301;28;20692;-75
2020/12/06 03:19:37;;;;;;;27.83;13.20;;;;;;;5.58;100.00;96281.69;5079050;28;20756;-75
2020/12/06 03:22:04;;;;;;;34.37;15.37;;;;;;;5.36;100.00;96297.03;5077080;28;20695;-76
2020/12/06 03:24:30;;;;;;;31.83;13.80;;;;;;;5.42;100.00;96295.38;5076147;28;20751;-75
2020/12/06 03:26:57;;;;;;;33.77;14.73;;;;;;;5.37;100.00;96290.72;5068782;28;20676;-75
2020/12/06 03:29:25;;;;;;;31.90;13.27;;;;;;;5.41;100.00;96284.00;5071125;28;20236;-75
2020/12/06 03:31:51;;;;;;;32.23;14.23;;;;;;;5.45;100.00;96277.28;5075226;28;20218;-76
2020/12/06 03:34:18;;;;;;;34.90;15.30;;;;;;;5.33;100.00;96278.16;5076874;28;20214;-75
2020/12/06 03:36:45;;;;;;;33.40;15.20;;;;;;;5.44;100.00;96266.91;5080352;28;20205;-75
2020/12/06 03:39:15;;;;;;;34.33;14.53;;;;;;;5.38;100.00;96271.19;5078772;28;20236;-75
2020/12/06 03:41:43;;;;;;;38.77;15.13;;;;;;;5.21;100.00;96275.34;5070009;28;20212;-75
2020/12/06 03:44:10;;;;;;;36.53;15.23;;;;;;;5.07;100.00;96288.81;5072325;28;20209;-74
2020/12/06 03:46:37;;;;;;;31.20;13.87;;;;;;;5.22;100.00;96290.19;5084623;28;20204;-73
2020/12/06 03:49:04;;;;;;;33.43;14.20;;;;;;;5.32;100.00;96281.78;5076476;28;20202;-73
2020/12/06 03:51:31;;;;;;;41.37;16.73;;;;;;;5.23;100.00;96256.63;5085976;28;20189;-75
2020/12/06 03:53:58;;;;;;;34.20;16.07;;;;;;;4.97;100.00;96251.44;5066547;28;20216;-73
2020/12/06 03:56:24;;;;;;;42.43;16.40;;;;;;;5.17;100.00;96252.16;5074517;28;20696;-73
2020/12/06 03:58:51;;;;;;;35.50;14.57;;;;;;;5.32;100.00;96263.28;5075661;28;20225;-73
2020/12/06 04:01:19;;;;;;;39.53;15.57;;;;;;;5.03;100.00;96277.84;5076603;28;20551;-73
2020/12/06 04:03:47;;;;;;;42.57;16.03;;;;;;;4.75;100.00;96271.22;5075931;28;20561;-73
2020/12/06 04:06:13;;;;;;;48.07;16.60;;;;;;;5.10;100.00;96283.94;5073724;28;20249;-73
2020/12/06 04:08:40;;;;;;;39.33;14.70;;;;;;;5.26;100.00;96269.41;5074178;28;20207;-73
2020/12/06 04:11:07;;;;;;;39.27;15.70;;;;;;;5.14;100.00;96261.31;5071371;28;20206;-75
2020/12/06 04:13:34;;;;;;;49.60;16.90;;;;;;;5.12;100.00;96273.94;5076251;28;20659;-75
2020/12/06 04:16:00;;;;;;;48.87;16.70;;;;;;;5.19;100.00;96281.84;5076143;28;20594;-74
2020/12/06 04:18:27;;;;;;;46.33;16.53;;;;;;;4.92;100.00;96275.03;5085538;28;20204;-73
2020/12/06 04:20:55;;;;;;;50.87;16.60;;;;;;;5.10;100.00;96272.53;5076237;28;20213;-73
2020/12/06 04:23:22;;;;;;;46.30;17.43;;;;;;;5.34;100.00;96271.81;5073802;28;20206;-74
2020/12/06 04:25:48;;;;;;;44.23;17.10;;;;;;;5.32;100.00;96279.13;5077049;28;20213;-74
2020/12/06 04:28:15;;;;;;;42.90;16.97;;;;;;;5.25;100.00;96265.97;5073513;28;20569;-74
2020/12/06 04:30:42;;;;;;;42.63;17.30;;;;;;;5.01;100.00;96271.13;5079683;28;20207;-74
2020/12/06 04:33:09;;;;;;;52.93;16.70;;;;;;;5.16;100.00;96276.97;5085621;28;20209;-74
2020/12/06 04:35:35;;;;;;;44.83;15.53;;;;;;;5.27;100.00;96276.31;5078420;28;20219;-74
2020/12/06 04:38:03;;;;;;;51.33;16.93;;;;;;;5.23;100.00;96275.94;5081859;28;20201;-75
2020/12/06 04:40:30;;;;;;;45.90;15.73;;;;;;;5.27;100.00;96277.13;5084504;28;20217;-74
2020/12/06 04:42:59;;;;;;;48.23;16.07;;;;;;;5.00;100.00;96283.56;5070424;28;20202;-75
2020/12/06 04:45:26;;;;;;;46.13;16.77;;;;;;;5.03;100.00;96272.53;5079687;28;20250;-75
2020/12/06 04:47:57;;;;;;;50.63;16.10;;;;;;;5.01;100.00;96265.84;5083908;28;20217;-75
2020/12/06 04:50:27;;;;;;;60.67;17.53;;;;;;;4.95;100.00;96274.63;5090520;28;20201;-74
2020/12/06 04:52:58;;;;;;;51.03;16.83;;;;;;;4.82;100.00;96291.31;5083287;28;20212;-74
2020/12/06 04:55:27;;;;;;;58.23;18.80;;;;;;;4.56;100.00;96304.56;5085666;28;20216;-74
2020/12/06 04:57:56;;;;;;;46.67;17.80;;;;;;;4.81;100.00;96307.38;5074105;28;20690;-74
2020/12/06 05:00:31;;;;;;;57.30;18.50;;;;;;;4.53;100.00;96301.53;5085068;28;20624;-73
2020/12/06 05:02:59;;;;;;;58.60;18.63;;;;;;;4.62;100.00;96293.19;5080283;28;20302;-73
2020/12/06 05:05:36;;;;;;;58.40;19.23;;;;;;;4.78;100.00;96292.75;5082423;28;20233;-73
2020/12/06 05:08:07;;;;;;;42.50;16.90;;;;;;;4.80;100.00;96284.63;5077469;28;20203;-73
2020/12/06 05:10:40;;;;;;;49.67;16.63;;;;;;;4.92;100.00;96293.53;5070439;28;20667;-74
2020/12/06 05:13:08;;;;;;;51.43;18.57;;;;;;;5.10;100.00;96291.84;5076909;28;20200;-77
2020/12/06 05:15:34;;;;;;;51.70;17.43;;;;;;;5.13;100.00;96293.28;5086980;28;20229;-74
2020/12/06 05:18:02;;;;;;;46.53;17.10;;;;;;;4.98;100.00;96288.22;5088306;28;20197;-77
2020/12/06 05:20:29;;;;;;;48.80;16.10;;;;;;;5.09;100.00;96265.63;5086090;28;20230;-77
2020/12/06 05:22:56;;;;;;;46.40;15.87;;;;;;;4.95;100.00;96261.41;5091914;28;20198;-77
2020/12/06 05:25:23;;;;;;;39.90;16.00;;;;;;;5.02;100.00;96270.94;5077835;28;20226;-77
2020/12/06 05:27:51;;;;;;;48.20;15.83;;;;;;;4.97;100.00;96280.53;5077920;28;20201;-78
2020/12/06 05:30:18;;;;;;;49.43;16.13;;;;;;;4.50;100.00;96286.91;5087626;28;20210;-76
2020/12/06 05:32:45;;;;;;;40.97;15.17;;;;;;;4.77;100.00;96280.56;5094451;28;20194;-78
2020/12/06 05:35:13;;;;;;;45.00;16.43;;;;;;;4.71;100.00;96278.75;5089210;28;20228;-75
2020/12/06 05:37:40;;;;;;;43.97;15.80;;;;;;;4.99;100.00;96297.78;5088816;28;20665;-77
2020/12/06 05:40:08;;;;;;;48.10;16.73;;;;;;;4.61;100.00;96304.78;5074470;28;20226;-75
2020/12/06 05:42:36;;;;;;;39.90;14.20;;;;;;;4.80;100.00;96303.94;5077964;28;20301;-76
2020/12/06 05:45:04;;;;;;;42.30;16.40;;;;;;;4.81;100.00;96294.16;5086598;28;20229;-75
2020/12/06 05:47:31;;;;;;;41.87;16.03;;;;;;;4.90;100.00;96291.09;5091142;28;20208;-75
2020/12/06 05:49:59;;;;;;;52.03;17.20;;;;;;;4.74;100.00;96282.81;5089234;28;20205;-75
2020/12/06 05:52:27;;;;;;;40.90;15.70;;;;;;;5.01;100.00;96274.59;5086336;28;20219;-76
2020/12/06 05:54:56;;;;;;;40.47;15.80;;;;;;;5.14;100.00;96279.81;5074008;28;20227;-76
2020/12/06 05:57:24;;;;;;;40.80;15.30;;;;;;;5.07;100.00;96286.19;5076731;28;20197;-76
2020/12/06 05:59:50;;;;;;;44.10;16.83;;;;;;;4.88;100.00;96277.25;5093413;28;20224;-76
2020/12/06 06:02:18;;;;;;;47.30;17.03;;;;;;;4.85;100.00;96274.22;5092983;28;20202;-76
2020/12/06 06:04:46;;;;;;;53.37;16.67;;;;;;;5.14;100.00;96284.31;5086400;28;20240;-76
2020/12/06 06:07:18;;;;;;;45.40;18.10;;;;;;;5.07;100.00;96286.19;5096327;22;20230;-81
2020/12/06 06:09:48;;;;;;;53.33;16.83;;;;;;;5.01;100.00;96284.34;5080460;28;20194;-80
2020/12/06 06:12:33;;;;;;;50.00;17.63;;;;;;;5.05;100.00;96296.13;5083105;28;20575;-80
2020/12/06 06:15:01;;;;;;;42.13;16.53;;;;;;;4.74;100.00;96291.56;5081835;28;20227;-79
2020/12/06 06:17:30;;;;;;;51.13;16.00;;;;;;;4.99;100.00;96284.56;5066818;28;20698;-81
2020/12/06 06:19:57;;;;;;;56.20;18.10;;;;;;;5.01;100.00;96293.09;5083724;28;20217;-79
2020/12/06 06:22:30;;;;;;;49.83;17.87;;;;;;;4.99;100.00;96281.94;5093600;28;20190;-80
2020/12/06 06:24:58;;;;;;;43.40;17.10;;;;;;;5.20;100.00;96286.13;5091719;28;20197;-84
2020/12/06 06:27:25;;;;;;;61.10;17.23;;;;;;;5.31;100.00;96288.09;5069137;28;20720;-82
2020/12/06 06:29:52;;;;;;;52.23;18.80;;;;;;;5.20;100.00;96297.50;5066301;28;20209;-78
2020/12/06 06:32:20;;;;;;;43.73;17.10;;;;;;;5.16;100.00;96303.41;5083819;28;20655;-78
2020/12/06 06:34:48;;;;;;;51.53;17.30;;;;;;;5.19;100.00;96313.59;5083065;28;20221;-79
2020/12/06 06:37:16;;;;;;;52.83;18.17;;;;;;;5.20;100.00;96323.97;5068193;28;20231;-77
2020/12/06 06:39:45;;;;;;;51.00;17.63;;;;;;;5.39;100.00;96338.13;5085605;28;20225;-78
2020/12/06 06:42:13;;;;;;;48.60;16.77;;;;;;;5.06;100.00;96351.44;5069492;28;20214;-78
2020/12/06 06:44:41;;;;;;;48.07;17.30;;;;;;;5.02;100.00;96352.88;5062181;28;20198;-78
2020/12/06 06:47:10;;;;;;;47.80;16.50;;;;;;;4.75;100.00;96351.28;5074944;28;20247;-78
2020/12/06 06:49:54;;;;;;;56.27;18.53;;;;;;;5.07;100.00;96349.63;5092251;28;20199;-79
2020/12/06 06:52:22;;;;;;;49.47;16.63;;;;;;;5.32;100.00;96355.84;5070291;28;20546;-79
2020/12/06 06:54:50;;;;;;;46.30;16.27;;;;;;;5.30;100.00;96360.53;5072651;28;20959;-78
2020/12/06 06:57:20;;;;;;;51.17;18.50;;;;;;;5.20;100.00;96352.22;5081434;28;20228;-80
2020/12/06 06:59:48;;;;;;;51.03;16.27;;;;;;;5.31;100.00;96355.03;5057466;28;20216;-81
2020/12/06 07:02:31;;;;;;;49.17;15.80;;;;;;;5.26;100.00;96352.22;5080961;28;20631;-80
2020/12/06 07:05:08;;;;;;;52.73;16.30;;;;;;;5.36;100.00;96362.34;5082437;28;20230;-85
2020/12/06 07:07:40;;;;;;;52.07;16.27;;;;;;;5.39;100.00;96361.94;5071030;28;20241;-83
2020/12/06 07:10:08;;;;;;;58.97;16.60;;;;;;;5.18;100.00;96352.41;5071555;28;20259;-82
2020/12/06 07:12:39;;;;;;;45.90;16.13;;;;;;;5.40;100.00;96337.94;5089550;28;20196;-81
2020/12/06 07:15:08;;;;;;;52.77;17.50;;;;;;;5.50;100.00;96348.06;5084080;28;20200;-81
2020/12/06 07:17:35;;;;;;;43.97;14.77;;;;;;;5.64;100.00;96368.16;5078129;28;20239;-82
2020/12/06 07:20:03;;;;;;;44.70;15.70;;;;;;;5.33;100.00;96349.56;5076678;28;20220;-81
2020/12/06 07:22:30;;;;;;;48.33;14.23;;;;;;;5.48;100.00;96356.19;5068320;28;20953;-77
2020/12/06 07:24:57;;;;;;;47.50;14.73;;;;;;;5.49;100.00;96357.00;5074674;28;20210;-77
2020/12/06 07:27:24;;;;;;;41.30;14.70;;;;;;;5.24;100.00;96354.22;5090846;28;20222;-81
2020/12/06 07:29:51;;;;;;;45.43;13.80;;;;;;;5.49;100.00;96341.16;5083164;28;20669;-80
2020/12/06 07:32:20;;;;;;;45.87;14.77;;;;;;;5.38;100.00;96347.09;5077390;28;20224;-79
2020/12/06 07:34:47;;;;;;;43.90;14.83;;;;;;;5.18;100.00;96347.13;5062513;28;20230;-80
2020/12/06 07:37:15;;;;;;;45.77;15.10;;;;;;;5.29;100.00;96335.91;5061618;28;20231;-79
2020/12/06 07:39:43;;;;;;;41.50;14.40;;;;;;;5.61;100.00;96332.34;5073045;28;20235;-80
2020/12/06 07:42:10;;;;;;;47.30;16.07;;;;;;;5.54;100.00;96347.41;5075662;28;20208;-80
2020/12/06 07:44:48;;;;;;;44.67;14.93;;;;;;;5.60;100.00;96333.38;5070140;28;20278;-79
2020/12/06 07:47:15;;;;;;;44.33;15.23;;;;;;;5.24;100.00;96337.56;5077373;28;20653;-78
2020/12/06 07:49:43;;;;;;;47.00;14.23;;;;;;;5.31;100.00;96346.28;5071769;28;20293;-81
2020/12/06 07:52:15;;;;;;;48.00;13.60;;;;;;;5.16;100.00;96358.94;5072774;28;20212;-78
2020/12/06 07:54:51;;;;;;;46.93;14.17;;;;;;;5.33;100.00;96352.19;5082441;28;20216;-79
2020/12/06 07:57:21;;;;;;;38.90;14.77;;;;;;;5.55;100.00;96354.34;5087025;28;20229;-81
2020/12/06 07:59:48;;;;;;;41.80;14.40;;;;;;;5.15;100.00;96365.25;5067821;28;20221;-81
2020/12/06 08:02:15;;;;;;;43.70;12.80;;;;;;;5.46;100.00;96371.47;5070481;28;20209;-79
2020/12/06 08:04:42;;;;;;;43.23;13.57;;;;;;;5.31;100.00;96368.25;5061729;28;20213;-78
2020/12/06 08:07:13;;;;;;;39.50;12.83;;;;;;;5.59;100.00;96362.66;5077677;28;20713;-80
2020/12/06 08:09:42;;;;;;;48.47;13.63;;;;;;;5.34;100.00;96359.09;5078632;28;20202;-84
2020/12/06 08:12:11;;;;;;;45.17;13.60;;;;;;;5.45;100.00;96359.28;5079560;28;20211;-78
2020/12/06 08:14:38;;;;;;;40.27;11.70;;;;;;;5.51;100.00;96373.47;5091122;28;20213;-81
2020/12/06 08:17:06;;;;;;;38.93;13.07;;;;;;;5.35;100.00;96368.66;5074348;28;20313;-78
2020/12/06 08:19:32;;;;;;;37.30;12.33;;;;;;;5.67;100.00;96376.47;5065832;28;20229;-80
2020/12/06 08:22:03;;;;;;;34.17;11.13;;;;;;;5.54;100.00;96373.88;5088111;28;20684;-77
2020/12/06 08:24:32;;;;;;;41.07;13.30;;;;;;;5.28;100.00;96371.31;5083768;28;20242;-78
2020/12/06 08:27:01;;;;;;;37.13;12.07;;;;;;;5.54;100.00;96359.84;5069055;28;20224;-76
2020/12/06 08:29:41;;;;;;;40.00;12.07;;;;;;;5.73;100.00;96359.75;5075723;28;20284;-77
2020/12/06 08:32:08;;;;;;;29.97;10.57;;;;;;;5.23;100.00;96367.69;5072267;28;20674;-77
2020/12/06 08:34:35;;;;;;;40.20;11.23;;;;;;;5.45;100.00;96359.28;5065564;28;20634;-78
2020/12/06 08:37:18;;;;;;;36.77;11.80;;;;;;;5.48;100.00;96356.19;5083635;28;20225;-85
2020/12/06 08:39:46;;;;;;;31.10;9.87;;;;;;;5.68;100.00;96353.47;5076213;28;20237;-86
2020/12/06 08:42:15;;;;;;;41.43;11.80;;;;;;;5.51;100.00;96350.50;5096966;28;20201;-85
2020/12/06 08:44:57;;;;;;;32.67;10.47;;;;;;;5.72;100.00;96365.25;5089827;28;20232;-86
2020/12/06 08:47:25;;;;;;;36.03;11.20;;;;;;;5.68;100.00;96359.56;5086816;28;20237;-85
2020/12/06 08:50:08;;;;;;;31.63;9.90;;;;;;;5.76;100.00;96351.41;5093044;28;20238;-88
2020/12/06 08:52:35;;;;;;;30.37;10.63;;;;;;;5.27;100.00;96342.41;5084897;28;20698;-87
2020/12/06 08:55:02;;;;;;;30.03;9.20;;;;;;;5.57;100.00;96336.41;5082650;28;20223;-85
2020/12/06 08:57:30;;;;;;;27.40;9.40;;;;;;;5.76;100.00;96348.75;5090584;28;20243;-91
2020/12/06 08:59:57;;;;;;;32.17;9.97;;;;;;;5.40;100.00;96351.16;5085990;28;20228;-84
2020/12/06 09:02:25;;;;;;;25.47;8.60;;;;;;;6.04;100.00;96343.94;5072133;28;20294;-78
2020/12/06 09:04:52;;;;;;;29.70;10.13;;;;;;;5.78;100.00;96330.03;5076142;28;20560;-78
2020/12/06 09:07:19;;;;;;;20.57;8.50;;;;;;;6.27;100.00;96325.66;5094737;28;20266;-85
2020/12/06 09:09:46;;;;;;;23.47;8.07;;;;;;;6.03;100.00;96323.78;5065162;28;20223;-81
2020/12/06 09:12:13;;;;;;;29.70;9.53;;;;;;;5.83;100.00;96331.03;5089398;28;20210;-78
2020/12/06 09:14:40;;;;;;;22.27;8.40;;;;;;;6.09;100.00;96322.91;5084684;28;20208;-78
2020/12/06 09:17:07;;;;;;;20.97;7.67;;;;;;;6.30;100.00;96330.50;5068070;28;20231;-79
2020/12/06 09:19:34;;;;;;;21.40;7.90;;;;;;;6.20;100.00;96322.22;5089775;28;20629;-79
2020/12/06 09:22:01;;;;;;;19.30;7.00;;;;;;;6.24;100.00;96326.06;5083319;28;20236;-80
2020/12/06 09:24:27;;;;;;;23.03;8.23;;;;;;;6.50;100.00;96323.22;5075855;28;20207;-79
2020/12/06 09:26:54;;;;;;;22.53;8.10;;;;;;;6.50;100.00;96315.28;5072212;28;20224;-79
2020/12/06 09:29:21;;;;;;;21.00;8.30;;;;;;;6.30;100.00;96319.91;5083976;28;20222;-78
2020/12/06 09:31:49;;;;;;;20.53;7.83;;;;;;;6.33;100.00;96337.22;5079188;28;20568;-78
2020/12/06 09:34:16;;;;;;;22.90;8.33;;;;;;;6.07;100.00;96351.47;5085713;28;20675;-80
2020/12/06 09:36:43;;;;;;;20.63;7.00;;;;;;;6.40;100.00;96346.72;5101049;28;20228;-77
2020/12/06 09:39:10;;;;;;;21.33;7.63;;;;;;;6.29;100.00;96354.59;5092132;28;20274;-78
2020/12/06 09:41:38;;;;;;;16.73;6.43;;;;;;;6.46;100.00;96367.09;5079736;28;20243;-77
2020/12/06 09:44:07;;;;;;;19.70;7.03;;;;;;;6.26;100.00;96355.81;5076839;28;20196;-78
2020/12/06 09:46:35;;;;;;;13.40;5.87;;;;;;;6.53;100.00;96351.13;5087794;28;20223;-79
2020/12/06 09:49:03;;;;;;;14.93;5.50;;;;;;;6.27;100.00;96346.03;5086386;28;20199;-78
2020/12/06 09:51:30;;;;;;;14.13;5.57;;;;;;;6.48;100.00;96348.31;5092710;28;20209;-78
2020/12/06 09:53:57;;;;;;;13.67;6.13;;;;;;;6.76;100.00;96362.75;5086238;28;20271;-77
2020/12/06 09:56:28;;;;;;;14.60;5.87;;;;;;;6.80;100.00;96365.81;5100240;28;20254;-78
2020/12/06 09:58:55;;;;;;;14.30;6.13;;;;;;;6.60;100.00;96358.00;5082589;28;20225;-77
2020/12/06 10:01:23;;;;;;;10.57;5.53;;;;;;;6.68;100.00;96357.75;5099818;28;20250;-78
2020/12/06 10:03:50;;;;;;;13.63;5.93;;;;;;;6.62;100.00;96360.44;5078859;28;20200;-78
2020/12/06 10:06:23;;;;;;;14.00;5.73;;;;;;;6.71;100.00;96349.34;5090473;28;20329;-77
2020/12/06 10:08:49;;;;;;;13.07;6.23;;;;;;;6.56;100.00;96354.19;5091454;28;20199;-78
2020/12/06 10:11:16;;;;;;;13.13;6.27;;;;;;;6.34;100.00;96339.66;5085448;28;20215;-78
2020/12/06 10:13:43;;;;;;;15.77;7.03;;;;;;;6.21;100.00;96334.47;5069259;28;20211;-78
2020/12/06 10:16:10;;;;;;;13.17;6.13;;;;;;;6.56;100.00;96342.75;5086790;28;20278;-78
2020/12/06 10:18:37;;;;;;;12.70;6.17;;;;;;;6.24;100.00;96339.31;5083444;28;20212;-79
2020/12/06 10:21:05;;;;;;;13.73;6.97;;;;;;;6.48;100.00;96349.13;5083987;28;20270;-78
2020/12/06 10:23:33;;;;;;;12.27;5.93;;;;;;;6.35;100.00;96361.66;5085012;28;20218;-80
2020/12/06 10:26:00;;;;;;;16.53;7.00;;;;;;;6.79;100.00;96372.94;5079382;28;21863;-78
2020/12/06 10:28:26;;;;;;;12.83;6.33;;;;;;;6.92;100.00;96385.25;5073474;28;20208;-78
2020/12/06 10:30:53;;;;;;;13.37;6.83;;;;;;;6.83;100.00;96381.25;5087929;28;20200;-79
2020/12/06 10:33:20;;;;;;;16.03;6.97;;;;;;;6.62;100.00;96379.81;5081288;28;20214;-79
2020/12/06 10:35:47;;;;;;;12.33;5.60;;;;;;;6.87;100.00;96367.38;5080966;28;20196;-78
2020/12/06 10:38:14;;;;;;;19.13;6.53;;;;;;;6.91;100.00;96368.53;5085860;28;20210;-78
2020/12/06 10:40:41;;;;;;;10.73;5.33;;;;;;;6.98;100.00;96364.00;5073498;28;20221;-78
2020/12/06 10:43:08;;;;;;;12.00;6.27;;;;;;;6.75;100.00;96361.13;5066685;28;20205;-78
2020/12/06 10:45:35;;;;;;;12.03;5.30;;;;;;;6.55;100.00;96362.34;5084888;28;20210;-78
2020/12/06 10:48:02;;;;;;;10.27;5.27;;;;;;;6.21;100.00;96347.72;5093188;28;20268;-78
2020/12/06 10:50:29;;;;;;;10.10;5.27;;;;;;;6.58;100.00;96348.63;5083378;28;20199;-78
2020/12/06 10:52:56;;;;;;;10.00;5.70;;;;;;;6.96;100.00;96347.47;5093601;28;20198;-78
2020/12/06 10:55:25;;;;;;;9.90;4.70;;;;;;;6.97;100.00;96343.81;5076744;28;20276;-79
2020/12/06 10:57:53;;;;;;;14.03;5.63;;;;;;;6.72;100.00;96343.03;5073490;28;20223;-78
2020/12/06 11:00:20;;;;;;;10.17;5.60;;;;;;;7.10;100.00;96345.53;5089083;28;20228;-78
2020/12/06 11:02:47;;;;;;;9.80;5.13;;;;;;;6.79;100.00;96348.25;5090277;28;20199;-78
2020/12/06 11:05:13;;;;;;;10.73;5.17;;;;;;;6.65;100.00;96352.06;5089009;28;20228;-79
2020/12/06 11:07:40;;;;;;;11.10;5.07;;;;;;;6.87;100.00;96346.16;5089122;28;20227;-79
2020/12/06 11:10:07;;;;;;;10.23;5.40;;;;;;;7.01;100.00;96339.69;5070477;28;20211;-79
2020/12/06 11:12:34;;;;;;;9.73;5.00;;;;;;;7.19;100.00;96339.72;5078158;28;20214;-81
2020/12/06 11:15:02;;;;;;;8.97;5.03;;;;;;;7.05;100.00;96345.38;5082155;28;20210;-78
2020/12/06 11:17:30;;;;;;;9.57;5.23;;;;;;;6.91;100.00;96334.06;5074532;28;20240;-78
2020/12/06 11:19:58;;;;;;;10.10;5.17;;;;;;;7.17;100.00;96336.47;5067685;28;20257;-77
2020/12/06 11:22:25;;;;;;;9.07;5.27;;;;;;;7.34;100.00;96334.84;5096840;28;20200;-77